Time;durP1;ratioP1;P1;durP2;ratioP2;P2;SDS_P1;SDS_P2;PMS_P1;PMS_P2;Temp;Humidity;BMP_temperature;BMP_pressure;BME280_temperature;BME280_humidity;BME280_pressure;Samples;Min_cycle;Max_cycle;Signal;HPM_P1;HPM_P2
2021/12/22 00:00:13;;;;;;;;;51.25;38.25;;;;;1.80;65.83;101757.22;5036438;28;45501;-50
2021/12/22 00:02:46;;;;;;;;;55.75;45.25;;;;;1.80;66.21;101770.75;5035349;28;45442;-51
2021/12/22 00:05:16;;;;;;;;;39.25;32.25;;;;;1.72;66.20;101772.22;5035685;28;46140;-55
2021/12/22 00:07:41;;;;;;;;;44.50;39.00;;;;;1.69;66.39;101763.50;5035584;28;45324;-53
2021/12/22 00:10:07;;;;;;;;;62.00;45.50;;;;;1.60;66.90;101749.75;5035917;28;45844;-53
2021/12/22 00:12:32;;;;;;;;;51.50;40.75;;;;;1.61;66.88;101766.88;5036639;28;45349;-53
2021/12/22 00:14:58;;;;;;;;;48.00;44.00;;;;;1.66;66.83;101759.22;5036122;28;45324;-56
2021/12/22 00:17:23;;;;;;;;;50.25;42.50;;;;;1.75;66.76;101758.44;5036864;28;45317;-50
2021/12/22 00:19:49;;;;;;;;;54.75;36.00;;;;;1.80;66.27;101754.50;5036288;28;46161;-50
2021/12/22 00:22:14;;;;;;;;;49.00;40.25;;;;;1.56;66.71;101705.00;5036465;28;45547;-54
2021/12/22 00:24:40;;;;;;;;;52.00;40.75;;;;;1.85;66.38;101744.13;5035950;28;45215;-51
2021/12/22 00:27:06;;;;;;;;;46.75;40.00;;;;;1.86;66.51;101754.81;5036013;28;45242;-53
2021/12/22 00:29:32;;;;;;;;;38.75;34.25;;;;;1.89;66.17;101757.28;5035658;28;45454;-53
2021/12/22 00:32:09;;;;;;;;;38.75;36.00;;;;;1.61;66.62;101718.16;5036045;28;45312;-54
2021/12/22 00:34:44;;;;;;;;;41.20;33.60;;;;;1.66;65.83;101712.34;5035685;28;45371;-50
2021/12/22 00:37:09;;;;;;;;;50.75;40.25;;;;;1.82;66.49;101742.53;5036080;28;45378;-55
2021/12/22 00:39:35;;;;;;;;;56.75;42.00;;;;;1.75;66.33;101734.06;5035495;28;45867;-52
2021/12/22 00:42:00;;;;;;;;;46.00;37.75;;;;;1.87;66.73;101742.16;5018007;28;45410;-51
2021/12/22 00:44:26;;;;;;;;;51.00;42.75;;;;;1.71;66.59;101708.25;5035751;28;45319;-52
2021/12/22 00:46:51;;;;;;;;;46.25;37.50;;;;;1.87;66.16;101745.72;5036125;28;45361;-54
2021/12/22 00:49:17;;;;;;;;;51.25;41.00;;;;;1.86;66.43;101746.72;5017557;28;45464;-52
2021/12/22 00:51:42;;;;;;;;;41.25;37.25;;;;;1.60;66.01;101703.75;5035555;28;45447;-54
2021/12/22 00:54:08;;;;;;;;;43.00;35.25;;;;;1.75;66.77;101738.63;5017876;28;45434;-54
2021/12/22 00:56:37;;;;;;;;;50.50;36.50;;;;;1.80;66.34;101747.22;4984831;28;45647;-56
2021/12/22 00:59:02;;;;;;;;;41.25;33.75;;;;;1.78;66.81;101740.22;5015231;28;45518;-52
2021/12/22 01:01:28;;;;;;;;;43.50;38.75;;;;;1.73;66.72;101740.59;5015179;28;45530;-50
2021/12/22 01:03:53;;;;;;;;;47.25;39.75;;;;;1.66;66.85;101743.00;5015560;28;45457;-53
2021/12/22 01:06:19;;;;;;;;;55.50;43.50;;;;;1.52;67.08;101730.59;4997806;28;45366;-51
2021/12/22 01:08:44;;;;;;;;;46.50;38.25;;;;;1.04;67.24;101658.78;5021788;28;46220;-51
2021/12/22 01:11:10;;;;;;;;;42.75;32.75;;;;;1.62;67.14;101742.34;5035191;28;45413;-51
2021/12/22 01:13:35;;;;;;;;;46.25;37.75;;;;;1.61;67.14;101742.50;5035432;28;45433;-54
2021/12/22 01:16:01;;;;;;;;;42.00;37.75;;;;;1.47;67.28;101713.88;5035238;28;45368;-53
2021/12/22 01:18:31;;;;;;;;;49.00;39.00;;;;;1.53;66.97;101720.63;5035181;28;46223;-53
2021/12/22 01:23:40;;;;;;;;;38.00;31.75;;;;;1.58;66.57;101746.31;5034933;28;45331;-52
2021/12/22 01:26:07;;;;;;;;;22.75;20.75;;;;;1.55;67.05;101751.97;5018817;28;45501;-51
2021/12/22 01:28:40;;;;;;;;;39.00;29.75;;;;;1.53;66.97;101755.78;5035000;28;46887;-51
2021/12/22 01:31:06;;;;;;;;;38.80;34.80;;;;;1.48;66.74;101748.06;5017145;28;45316;-52
2021/12/22 01:33:31;;;;;;;;;37.25;30.75;;;;;1.48;67.22;101738.09;5017399;28;45914;-51
2021/12/22 01:35:57;;;;;;;;;50.00;40.25;;;;;1.56;67.56;101728.50;5035013;28;45626;-51
2021/12/22 01:38:22;;;;;;;;;36.00;28.25;;;;;1.52;67.13;101721.59;5034786;28;47076;-54
2021/12/22 01:40:48;;;;;;;;;43.50;40.75;;;;;1.39;66.94;101683.91;5035019;28;45411;-52
2021/12/22 01:43:14;;;;;;;;;39.50;34.50;;;;;1.43;66.99;101694.34;5035137;28;45372;-49
2021/12/22 01:51:40;;;;;;;;;41.25;37.25;;;;;1.55;66.49;101678.06;5034578;28;45459;-54
2021/12/22 01:54:31;;;;;;;;;38.25;37.50;;;;;1.81;67.17;101718.31;5034812;28;45327;-51
2021/12/22 01:57:01;;;;;;;;;32.50;27.00;;;;;1.82;66.83;101715.44;4989882;28;45422;-54
2021/12/22 01:59:26;;;;;;;;;47.50;36.25;;;;;1.85;66.82;101723.34;5019407;28;46484;-52
2021/12/22 02:01:53;;;;;;;;;45.75;38.75;;;;;1.91;66.74;101721.94;5034681;28;45264;-52
2021/12/22 02:04:18;;;;;;;;;45.25;35.25;;;;;1.94;66.84;101729.81;5033517;28;45355;-50
2021/12/22 02:06:45;;;;;;;;;50.50;41.00;;;;;1.92;66.82;101723.66;5034799;28;45237;-55
2021/12/22 02:09:14;;;;;;;;;44.00;38.50;;;;;1.97;66.67;101724.13;5034095;28;46373;-54
2021/12/22 02:11:39;;;;;;;;;44.00;36.40;;;;;1.96;66.57;101718.84;5017000;28;45714;-53
2021/12/22 02:14:06;;;;;;;;;52.50;39.75;;;;;1.98;67.18;101720.41;5034850;28;45439;-57
2021/12/22 02:16:36;;;;;;;;;45.75;35.00;;;;;1.95;66.43;101714.41;5034612;28;45605;-53
2021/12/22 02:19:04;;;;;;;;;42.00;36.00;;;;;1.85;66.80;101703.50;5034413;28;46012;-52
2021/12/22 02:21:34;;;;;;;;;44.75;37.50;;;;;1.90;66.83;101714.81;5035141;28;45517;-55
2021/12/22 02:23:59;;;;;;;;;44.25;39.00;;;;;1.85;67.50;101706.22;5010712;28;45253;-50
2021/12/22 02:26:34;;;;;;;;;49.25;43.00;;;;;1.38;67.14;101619.97;5038322;28;45558;-55
2021/12/22 02:29:05;;;;;;;;;42.25;32.50;;;;;1.95;66.47;101723.41;5038144;28;45864;-53
2021/12/22 02:31:36;;;;;;;;;42.80;39.60;;;;;1.65;67.15;101692.53;5037881;28;45484;-51
2021/12/22 02:34:02;;;;;;;;;40.50;35.00;;;;;1.79;66.79;101717.56;5038252;28;45341;-52
2021/12/22 02:36:34;;;;;;;;;37.25;34.75;;;;;1.83;66.82;101721.75;5037890;28;45614;-50
2021/12/22 02:39:00;;;;;;;;;44.25;35.50;;;;;1.65;66.78;101681.69;5037733;28;45440;-54
2021/12/22 02:41:28;;;;;;;;;44.50;37.75;;;;;1.73;67.17;101714.41;5037395;28;45399;-51
2021/12/22 02:43:55;;;;;;;;;44.25;39.75;;;;;1.62;67.27;101707.16;5038004;28;45448;-52
2021/12/22 02:46:23;;;;;;;;;46.25;40.00;;;;;1.65;67.19;101708.75;5038016;28;45388;-53
2021/12/22 02:48:49;;;;;;;;;43.75;37.75;;;;;1.69;67.02;101702.13;5036970;28;47487;-51
2021/12/22 02:51:15;;;;;;;;;37.75;32.50;;;;;1.68;67.18;101711.22;5035960;28;45375;-52
2021/12/22 02:54:01;;;;;;;;;44.00;38.25;;;;;1.61;67.26;101713.56;5037702;28;45334;-52
2021/12/22 02:56:34;;;;;;;;;39.50;38.75;;;;;1.60;67.69;101706.44;5036463;28;45893;-52
2021/12/22 02:59:12;;;;;;;;;44.75;40.50;;;;;1.63;67.29;101705.34;5037534;28;46064;-55
2021/12/22 03:04:20;;;;;;;;;47.50;39.50;;;;;1.81;67.55;101707.47;5008867;28;45366;-51
2021/12/22 03:06:54;;;;;;;;;45.50;39.50;;;;;1.86;67.54;101699.81;5017662;28;45596;-53
2021/12/22 03:09:24;;;;;;;;;45.00;41.75;;;;;1.87;67.45;101706.97;5022467;28;47159;-52
2021/12/22 03:11:50;;;;;;;;;51.25;43.00;;;;;1.77;66.99;101701.47;5034581;28;45434;-49
2021/12/22 03:14:15;;;;;;;;;57.75;43.50;;;;;1.83;67.20;101709.06;5036285;28;45394;-54
2021/12/22 03:16:42;;;;;;;;;46.00;40.50;;;;;1.72;67.50;101679.34;5035851;28;45447;-54
2021/12/22 03:19:10;;;;;;;;;42.00;37.50;;;;;1.80;67.10;101689.53;5032934;28;46646;-54
2021/12/22 03:21:36;;;;;;;;;36.20;30.80;;;;;1.51;67.38;101631.47;5035993;28;45450;-50
2021/12/22 03:24:01;;;;;;;;;42.75;37.25;;;;;1.98;66.99;101715.00;5035957;28;45402;-53
2021/12/22 03:26:28;;;;;;;;;49.75;43.25;;;;;1.95;67.07;101704.44;5037318;28;45423;-55
2021/12/22 03:28:54;;;;;;;;;55.25;42.25;;;;;1.98;67.00;101717.72;5036738;28;47698;-52
2021/12/22 03:31:20;;;;;;;;;47.00;42.25;;;;;1.99;66.87;101713.16;5019069;28;45440;-51
2021/12/22 03:33:45;;;;;;;;;50.50;43.75;;;;;1.85;66.80;101703.50;5037068;28;45804;-50
2021/12/22 03:36:14;;;;;;;;;48.00;43.75;;;;;1.93;67.12;101711.84;5036943;28;45466;-55
2021/12/22 03:38:39;;;;;;;;;38.50;30.75;;;;;1.97;67.04;101701.63;5036896;28;45498;-52
2021/12/22 03:41:06;;;;;;;;;45.50;34.25;;;;;1.96;66.27;101691.75;5018739;28;45409;-52
2021/12/22 03:43:32;;;;;;;;;43.75;39.00;;;;;1.72;66.67;101654.97;5036785;28;45255;-49
2021/12/22 03:45:57;;;;;;;;;42.50;38.25;;;;;1.97;66.33;101696.22;5036984;28;45486;-50
2021/12/22 03:48:24;;;;;;;;;44.00;40.00;;;;;1.91;66.32;101696.72;5018815;28;45370;-55
2021/12/22 03:50:50;;;;;;;;;48.00;40.50;;;;;1.93;66.08;101701.03;5036772;28;45497;-57
2021/12/22 03:53:16;;;;;;;;;47.50;39.25;;;;;1.76;66.46;101678.06;5019442;28;45383;-50
2021/12/22 03:55:41;;;;;;;;;51.50;45.00;;;;;1.92;66.38;101710.13;5037003;28;45422;-53
2021/12/22 03:58:07;;;;;;;;;42.50;37.25;;;;;1.89;66.09;101702.25;5018720;28;46089;-51
2021/12/22 04:00:34;;;;;;;;;56.25;46.50;;;;;1.69;66.12;101661.50;5036232;28;45409;-54
2021/12/22 04:03:01;;;;;;;;;41.00;36.75;;;;;1.94;66.51;101702.75;5019018;28;45293;-56
2021/12/22 04:05:27;;;;;;;;;53.00;38.25;;;;;1.73;66.33;101684.63;4998639;28;45586;-53
2021/12/22 04:07:54;;;;;;;;;45.00;37.00;;;;;1.88;65.74;101704.09;5035977;28;45463;-53
2021/12/22 04:10:21;;;;;;;;;44.00;36.00;;;;;1.87;65.91;101704.25;5018471;28;45386;-52
2021/12/22 04:12:47;;;;;;;;;54.00;42.50;;;;;1.83;66.92;101690.13;5035668;28;45414;-54
2021/12/22 04:15:13;;;;;;;;;44.75;31.25;;;;;1.83;66.21;101681.13;5018431;28;45371;-50
2021/12/22 04:17:38;;;;;;;;;45.50;36.25;;;;;1.57;66.25;101635.50;5036086;28;45371;-50
2021/12/22 04:20:04;;;;;;;;;52.25;39.25;;;;;1.66;66.17;101639.25;5036312;28;45419;-51
2021/12/22 04:22:30;;;;;;;;;52.50;39.50;;;;;1.90;66.62;101674.19;5036206;28;45268;-56
2021/12/22 04:24:55;;;;;;;;;46.25;38.75;;;;;1.91;66.51;101675.91;5035926;28;45373;-53
2021/12/22 04:27:21;;;;;;;;;40.75;37.75;;;;;1.94;66.13;101681.06;5035727;28;45302;-51
2021/12/22 04:29:46;;;;;;;;;51.00;43.75;;;;;1.96;66.42;101680.91;5035894;28;45199;-54
2021/12/22 04:32:12;;;;;;;;;47.50;41.50;;;;;1.95;66.29;101682.78;5035595;28;45662;-53
2021/12/22 04:34:37;;;;;;;;;52.25;43.00;;;;;1.94;66.08;101691.91;5036374;28;45624;-54
2021/12/22 04:37:03;;;;;;;;;48.50;39.75;;;;;1.97;66.69;101696.22;5017787;28;47403;-52
2021/12/22 04:39:32;;;;;;;;;51.75;40.25;;;;;1.97;66.89;101686.22;5017962;28;45397;-51
2021/12/22 04:41:58;;;;;;;;;44.25;38.00;;;;;1.97;66.11;101680.81;5035705;28;45245;-55
2021/12/22 04:44:24;;;;;;;;;47.00;41.75;;;;;1.97;65.99;101688.09;5035626;28;45281;-49
2021/12/22 04:46:49;;;;;;;;;41.50;35.25;;;;;1.97;65.40;101688.91;5035438;28;45729;-52
2021/12/22 04:49:15;;;;;;;;;50.25;41.50;;;;;1.92;66.49;101683.03;5035283;28;45212;-54
2021/12/22 04:51:48;;;;;;;;;49.75;36.50;;;;;1.94;65.74;101710.00;5035825;28;45335;-53
2021/12/22 04:54:46;;;;;;;;;49.50;38.00;;;;;2.00;65.48;101707.63;5019194;28;45396;-51
2021/12/22 04:56:59;;;;;;;;;49.75;46.00;;;;;2.02;65.96;101705.63;5035000;28;46094;-52
2021/12/22 04:59:25;;;;;;;;;39.75;33.00;;;;;1.86;65.65;101678.16;5017891;28;45358;-53
2021/12/22 05:01:51;;;;;;;;;40.50;32.00;;;;;1.97;65.89;101702.47;5035124;28;45319;-53
2021/12/22 05:04:17;;;;;;;;;48.00;38.00;;;;;1.93;65.73;101701.03;5035497;28;45541;-51
2021/12/22 05:06:42;;;;;;;;;55.50;42.25;;;;;1.86;65.61;101702.50;5001230;28;46274;-54
2021/12/22 05:09:08;;;;;;;;;43.25;37.25;;;;;1.62;66.09;101661.16;5027090;28;46480;-54
2021/12/22 05:11:34;;;;;;;;;54.50;42.75;;;;;1.76;66.21;101686.19;5010891;28;45395;-53
2021/12/22 05:14:00;;;;;;;;;43.75;33.50;;;;;1.69;65.78;101680.47;4994228;28;45522;-55
2021/12/22 05:16:27;;;;;;;;;43.00;35.75;;;;;1.64;66.50;101660.19;5015223;28;46428;-56
2021/12/22 05:19:14;;;;;;;;;48.80;41.20;;;;;1.57;66.25;101668.84;5015405;28;45336;-53
2021/12/22 05:21:41;;;;;;;;;38.25;31.50;;;;;1.64;66.49;101665.63;5015313;28;45360;-50
2021/12/22 05:24:06;;;;;;;;;51.00;44.25;;;;;1.42;66.74;101640.34;5015290;28;45356;-50
2021/12/22 05:26:32;;;;;;;;;51.25;40.75;;;;;1.53;66.30;101670.06;4997373;28;46165;-51
2021/12/22 05:28:57;;;;;;;;;49.75;38.25;;;;;1.55;66.67;101673.50;5015126;28;45474;-53
2021/12/22 05:31:23;;;;;;;;;35.00;30.75;;;;;1.58;66.64;101669.69;5015401;28;45328;-52
2021/12/22 05:33:49;;;;;;;;;47.50;37.75;;;;;1.50;66.63;101664.94;5015095;28;45347;-54
2021/12/22 05:36:14;;;;;;;;;47.25;37.25;;;;;1.47;66.89;101668.75;5015230;28;45985;-52
2021/12/22 05:38:40;;;;;;;;;51.25;36.75;;;;;1.43;66.70;101663.69;5015433;28;45469;-56
2021/12/22 05:41:05;;;;;;;;;41.00;34.50;;;;;1.35;66.11;101648.13;5015339;28;45470;-50
2021/12/22 05:43:31;;;;;;;;;37.50;34.25;;;;;1.49;66.48;101672.19;5015138;28;45399;-53
2021/12/22 05:45:56;;;;;;;;;45.00;37.25;;;;;1.55;66.26;101680.78;4997335;28;46820;-51
2021/12/22 05:48:23;;;;;;;;;45.25;37.50;;;;;1.57;65.67;101676.09;5014788;28;45438;-51
2021/12/22 05:50:51;;;;;;;;;40.25;39.25;;;;;1.56;66.29;101672.53;5015037;28;45951;-50
2021/12/22 05:53:17;;;;;;;;;45.25;36.25;;;;;1.59;66.19;101682.22;5014847;28;45620;-49
2021/12/22 05:55:42;;;;;;;;;49.25;35.00;;;;;1.62;66.24;101681.97;4979508;28;46571;-53
2021/12/22 05:58:08;;;;;;;;;46.75;35.25;;;;;1.64;66.63;101682.69;5014780;28;45502;-53
2021/12/22 06:00:33;;;;;;;;;51.00;41.75;;;;;1.67;66.06;101685.16;4996849;28;45379;-50
2021/12/22 06:02:59;;;;;;;;;39.00;34.50;;;;;1.68;66.16;101692.28;5014904;28;45470;-51
2021/12/22 06:05:24;;;;;;;;;46.50;37.75;;;;;1.69;66.24;101696.69;5014584;28;45651;-54
2021/12/22 06:07:50;;;;;;;;;58.00;46.25;;;;;1.58;66.20;101704.84;5014283;28;45550;-51
2021/12/22 06:10:15;;;;;;;;;39.50;29.75;;;;;1.44;65.92;101700.63;5023823;28;45395;-51
2021/12/22 06:12:41;;;;;;;;;26.50;26.50;;;;;1.38;66.58;101696.56;5034798;28;45367;-52
2021/12/22 06:15:07;;;;;;;;;42.25;36.00;;;;;1.30;66.51;101678.28;5034510;28;45530;-50
2021/12/22 06:17:32;;;;;;;;;34.25;32.50;;;;;1.37;66.58;101678.63;4996884;28;45884;-50
2021/12/22 06:19:58;;;;;;;;;43.75;33.75;;;;;1.40;66.38;101689.19;5014324;28;45344;-56
2021/12/22 06:22:24;;;;;;;;;51.50;42.00;;;;;1.41;66.00;101690.03;5015011;28;45312;-55
2021/12/22 06:24:49;;;;;;;;;36.50;28.50;;;;;1.40;66.37;101686.50;5014083;28;46493;-52
2021/12/22 06:27:15;;;;;;;;;39.50;35.50;;;;;1.41;66.06;101687.34;5014395;28;45343;-51
2021/12/22 06:29:41;;;;;;;;;35.00;29.25;;;;;1.17;66.22;101640.56;4980672;28;45440;-53
2021/12/22 06:32:07;;;;;;;;;45.25;39.75;;;;;1.45;66.03;101678.81;4997140;28;45336;-54
2021/12/22 06:34:32;;;;;;;;;56.25;44.75;;;;;1.50;66.02;101686.59;5014137;28;46428;-54
2021/12/22 06:36:58;;;;;;;;;48.00;40.50;;;;;1.41;66.54;101682.78;5014146;28;45365;-52
2021/12/22 06:39:23;;;;;;;;;39.50;37.25;;;;;1.47;66.42;101682.28;5014868;28;45886;-56
2021/12/22 06:41:49;;;;;;;;;41.25;39.00;;;;;1.50;66.56;101686.59;4996859;28;45825;-55
2021/12/22 06:44:15;;;;;;;;;41.50;36.50;;;;;1.47;65.82;101689.53;4996462;28;46169;-54
2021/12/22 06:46:41;;;;;;;;;41.75;30.75;;;;;1.46;66.14;101688.69;5014342;28;45765;-49
2021/12/22 06:49:08;;;;;;;;;51.00;38.50;;;;;1.49;66.65;101696.53;4979739;28;45784;-51
2021/12/22 06:51:33;;;;;;;;;52.25;35.50;;;;;1.48;66.60;101691.25;4996884;28;45565;-57
2021/12/22 06:53:59;;;;;;;;;47.50;35.50;;;;;1.27;66.49;101666.88;5014065;28;45606;-56
2021/12/22 06:56:24;;;;;;;;;51.00;37.00;;;;;1.56;66.45;101704.13;5014350;28;45742;-50
2021/12/22 06:58:50;;;;;;;;;49.50;43.75;;;;;1.56;65.76;101709.53;5013790;28;45354;-53
2021/12/22 07:01:19;;;;;;;;;41.75;33.00;;;;;1.52;65.05;101708.06;5014339;28;45517;-54
2021/12/22 07:03:45;;;;;;;;;41.00;39.75;;;;;1.54;65.34;101712.38;4995932;28;46813;-54
2021/12/22 07:06:10;;;;;;;;;34.20;28.20;;;;;1.53;65.99;101702.53;5013838;28;45357;-60
2021/12/22 07:08:36;;;;;;;;;44.00;38.00;;;;;1.49;65.88;101696.53;5016853;28;45360;-54
2021/12/22 07:11:01;;;;;;;;;48.75;39.50;;;;;1.54;65.48;101693.44;5032033;28;45492;-53
2021/12/22 07:13:27;;;;;;;;;48.00;39.25;;;;;1.60;65.81;101683.97;5002484;28;46556;-52
2021/12/22 07:15:52;;;;;;;;;44.25;33.75;;;;;1.59;65.61;101688.50;5019321;28;45355;-51
2021/12/22 07:18:18;;;;;;;;;38.75;31.00;;;;;1.59;65.72;101684.91;5019437;28;45296;-51
2021/12/22 07:20:43;;;;;;;;;47.25;35.50;;;;;1.16;65.92;101621.75;5037649;28;45549;-54
2021/12/22 07:23:09;;;;;;;;;42.00;32.75;;;;;1.56;66.09;101694.19;5018654;28;45285;-51
2021/12/22 07:25:34;;;;;;;;;37.50;33.25;;;;;1.50;65.15;101694.69;5002405;28;45442;-52
2021/12/22 07:28:00;;;;;;;;;45.00;38.50;;;;;1.39;65.60;101695.56;5019324;28;45304;-54
2021/12/22 07:30:26;;;;;;;;;36.00;26.25;;;;;1.31;66.22;101690.81;5019443;28;45291;-54
2021/12/22 07:32:51;;;;;;;;;45.75;36.25;;;;;1.06;65.84;101657.69;5036772;28;46603;-55
2021/12/22 07:35:38;;;;;;;;;48.50;40.00;;;;;1.26;65.71;101693.03;5037017;28;45318;-56
2021/12/22 07:38:30;;;;;;;;;34.50;26.50;;;;;1.38;66.41;101696.56;5018820;28;45575;-56
2021/12/22 07:40:58;;;;;;;;;53.00;41.25;;;;;1.42;66.17;101692.63;5037407;28;45307;-51
2021/12/22 07:43:24;;;;;;;;;46.50;37.50;;;;;1.46;65.53;101693.22;5036774;28;45849;-56
2021/12/22 07:45:50;;;;;;;;;40.50;35.50;;;;;1.44;65.95;101689.78;5036778;28;45370;-50
2021/12/22 07:48:16;;;;;;;;;55.75;43.50;;;;;1.40;66.14;101678.38;5028487;28;45418;-54
2021/12/22 07:50:41;;;;;;;;;50.50;35.75;;;;;1.39;65.90;101684.75;5017275;28;45474;-52
2021/12/22 07:53:07;;;;;;;;;35.25;35.25;;;;;1.34;65.90;101692.41;5018768;28;45335;-50
2021/12/22 07:55:32;;;;;;;;;41.50;38.00;;;;;1.33;66.07;101688.00;5036780;28;45355;-51
2021/12/22 07:57:58;;;;;;;;;44.00;37.00;;;;;1.35;66.28;101694.13;5036912;28;45705;-53
2021/12/22 08:00:23;;;;;;;;;68.50;41.00;;;;;1.41;66.57;101695.44;5035748;28;45325;-55
2021/12/22 08:02:49;;;;;;;;;53.75;43.75;;;;;1.29;66.17;101690.06;5036191;28;45434;-53
2021/12/22 08:05:15;;;;;;;;;49.25;41.00;;;;;1.27;65.83;101707.44;5018686;28;45177;-56
2021/12/22 08:07:41;;;;;;;;;49.00;40.75;;;;;1.24;65.79;101715.78;5036694;28;45292;-56
2021/12/22 08:10:07;;;;;;;;;44.25;36.00;;;;;1.25;66.61;101722.91;5036373;28;45370;-53
2021/12/22 08:12:32;;;;;;;;;43.25;35.00;;;;;0.90;66.14;101676.16;5018465;28;47696;-52
2021/12/22 08:14:58;;;;;;;;;53.75;43.50;;;;;1.14;66.91;101710.28;5018412;28;45533;-48
2021/12/22 08:17:25;;;;;;;;;53.25;39.00;;;;;1.18;66.71;101700.94;5036601;28;45401;-49
2021/12/22 08:19:51;;;;;;;;;55.25;42.00;;;;;1.19;66.68;101700.78;4961371;28;45930;-54
2021/12/22 08:22:16;;;;;;;;;55.25;40.50;;;;;1.25;66.98;101690.44;5014373;28;45454;-59
2021/12/22 08:24:42;;;;;;;;;43.00;36.75;;;;;1.28;66.87;101682.94;5011717;28;45794;-54
2021/12/22 08:27:07;;;;;;;;;46.75;37.00;;;;;1.40;66.50;101682.91;5003763;28;45987;-52
2021/12/22 08:29:33;;;;;;;;;37.50;22.50;;;;;1.25;66.61;101658.00;4992816;28;45449;-53
2021/12/22 08:31:59;;;;;;;;;57.00;39.50;;;;;1.47;65.85;101684.13;5011593;28;46326;-58
2021/12/22 08:34:34;;;;;;;;;51.50;39.25;;;;;1.29;66.25;101659.47;5011711;28;45415;-55
2021/12/22 08:39:44;;;;;;;;;43.50;39.25;;;;;1.53;65.42;101688.13;4992339;28;45430;-53
2021/12/22 08:42:12;;;;;;;;;47.00;32.25;;;;;1.31;65.22;101658.34;4996419;28;45425;-55
2021/12/22 08:44:38;;;;;;;;;50.00;44.00;;;;;1.45;66.08;101686.94;5011859;28;45983;-53
2021/12/22 08:47:04;;;;;;;;;43.50;34.50;;;;;1.23;66.38;101635.63;5011897;28;45570;-52
2021/12/22 08:49:30;;;;;;;;;53.00;39.00;;;;;1.47;66.42;101666.03;4995346;28;45840;-54
2021/12/22 08:51:55;;;;;;;;;55.25;38.50;;;;;1.47;65.47;101687.69;4960151;28;48143;-54
2021/12/22 08:54:21;;;;;;;;;46.50;38.25;;;;;1.25;66.09;101653.47;4995967;28;45904;-52
2021/12/22 08:56:47;;;;;;;;;51.50;45.75;;;;;1.46;66.23;101679.69;5011706;28;45757;-53
2021/12/22 08:59:14;;;;;;;;;44.00;34.00;;;;;1.38;65.62;101674.06;4994602;28;45554;-54
2021/12/22 09:01:41;;;;;;;;;51.25;41.75;;;;;1.12;65.61;101641.94;5011552;28;45543;-53
2021/12/22 09:04:06;;;;;;;;;49.25;42.50;;;;;1.41;65.88;101673.81;5011226;28;45439;-56
2021/12/22 09:06:32;;;;;;;;;36.75;35.50;;;;;1.32;66.16;101656.50;5010791;28;45775;-55
2021/12/22 09:08:58;;;;;;;;;50.50;42.50;;;;;1.46;65.80;101666.16;4977394;28;45479;-55
2021/12/22 09:11:24;;;;;;;;;54.25;44.25;;;;;1.46;66.16;101671.56;5024494;28;45896;-56
2021/12/22 09:13:50;;;;;;;;;59.50;34.75;;;;;1.44;66.03;101673.56;4996218;28;45359;-55
2021/12/22 09:16:16;;;;;;;;;58.25;44.00;;;;;1.34;66.50;101666.19;4993608;28;45441;-56
2021/12/22 09:18:42;;;;;;;;;49.75;38.00;;;;;1.34;66.07;101665.34;4995170;28;45474;-57
2021/12/22 09:21:09;;;;;;;;;51.50;41.25;;;;;1.15;66.74;101628.16;5011093;28;45453;-56
2021/12/22 09:23:35;;;;;;;;;53.75;40.75;;;;;1.46;66.67;101675.16;4993371;28;45483;-60
2021/12/22 09:26:01;;;;;;;;;51.00;44.50;;;;;1.26;66.45;101632.66;4992280;28;46679;-55
2021/12/22 09:28:27;;;;;;;;;61.75;43.00;;;;;1.57;66.12;101673.38;4993620;28;45590;-54
2021/12/22 09:30:52;;;;;;;;;44.50;40.00;;;;;1.57;66.59;101660.72;4991728;28;46181;-52
2021/12/22 09:33:18;;;;;;;;;51.75;42.75;;;;;1.67;65.78;101668.91;5011138;28;45422;-56
2021/12/22 09:35:46;;;;;;;;;47.25;40.00;;;;;1.66;65.25;101678.03;4993371;28;45468;-56
2021/12/22 09:38:12;;;;;;;;;50.25;45.00;;;;;1.37;65.44;101619.09;4993190;28;45840;-55
2021/12/22 09:40:37;;;;;;;;;48.75;38.75;;;;;1.60;65.98;101681.25;4993072;28;46667;-52
2021/12/22 09:43:03;;;;;;;;;54.50;37.25;;;;;1.65;65.86;101687.09;4992128;28;45443;-56
2021/12/22 09:45:29;;;;;;;;;50.00;43.75;;;;;1.66;65.77;101674.44;5010710;28;45379;-55
2021/12/22 09:48:21;;;;;;;;;49.75;42.00;;;;;1.52;65.77;101645.84;4960403;28;45558;-52
2021/12/22 09:50:52;;;;;;;;;43.00;37.50;;;;;1.75;65.68;101682.66;4951424;28;45902;-53
2021/12/22 09:53:24;;;;;;;;;59.00;41.00;;;;;1.73;65.88;101681.06;4990941;28;45530;-51
2021/12/22 09:55:50;;;;;;;;;48.00;42.25;;;;;1.70;65.63;101686.75;4983558;28;45910;-51
2021/12/22 09:58:15;;;;;;;;;48.50;39.50;;;;;1.64;65.77;101689.97;4993087;28;45642;-56
2021/12/22 10:00:41;;;;;;;;;60.50;46.25;;;;;1.56;65.67;101694.19;5010669;28;45827;-52
2021/12/22 10:03:07;;;;;;;;;47.50;40.00;;;;;1.52;65.69;101689.13;4992635;28;45674;-49
2021/12/22 10:05:34;;;;;;;;;67.75;48.25;;;;;1.51;65.82;101684.72;5010417;28;46069;-54
2021/12/22 10:08:16;;;;;;;;;53.50;43.75;;;;;1.46;66.07;101685.09;5009576;28;45720;-51
2021/12/22 10:10:47;;;;;;;;;61.75;51.50;;;;;1.47;66.14;101678.69;4997375;28;46348;-57
2021/12/22 10:13:14;;;;;;;;;63.00;44.25;;;;;1.44;65.89;101657.34;5012214;28;45473;-51
2021/12/22 10:15:40;;;;;;;;;58.75;44.25;;;;;1.64;66.36;101674.56;5015049;28;45821;-51
2021/12/22 10:18:09;;;;;;;;;62.00;48.50;;;;;1.67;65.76;101677.03;5010656;28;45633;-52
2021/12/22 10:20:34;;;;;;;;;54.50;41.00;;;;;1.68;66.16;101670.63;4994279;28;45791;-57
2021/12/22 10:23:00;;;;;;;;;48.25;41.00;;;;;1.80;65.97;101690.38;5010191;28;45441;-53
2021/12/22 10:25:31;;;;;;;;;50.75;44.50;;;;;1.78;65.66;101677.94;4992660;28;45392;-48
2021/12/22 10:28:02;;;;;;;;;64.75;47.50;;;;;1.89;65.62;101691.44;4993025;28;45534;-54
2021/12/22 10:30:36;;;;;;;;;54.50;40.50;;;;;1.89;65.57;101683.31;4992966;28;46540;-53
2021/12/22 10:33:08;;;;;;;;;59.00;44.75;;;;;1.94;65.88;101675.66;4975993;28;45442;-51
2021/12/22 10:35:34;;;;;;;;;62.00;46.50;;;;;1.97;65.78;101680.81;4992871;28;45600;-54
2021/12/22 10:38:01;;;;;;;;;51.00;46.00;;;;;1.99;65.64;101675.25;5010927;28;45621;-51
2021/12/22 10:40:51;;;;;;;;;57.25;43.50;;;;;2.03;65.12;101676.72;4992029;28;48305;-55
2021/12/22 10:43:22;;;;;;;;;72.25;45.75;;;;;2.03;65.52;101663.19;5010790;28;45526;-56
2021/12/22 10:45:51;;;;;;;;;55.75;45.25;;;;;2.10;65.05;101669.78;5005911;28;45475;-56
2021/12/22 10:51:05;;;;;;;;;54.25;45.50;;;;;2.18;64.53;101655.53;4994424;28;46621;-55
2021/12/22 10:53:30;;;;;;;;;58.25;43.75;;;;;2.08;64.30;101630.28;4978907;28;45485;-54
2021/12/22 10:55:56;;;;;;;;;51.25;36.50;;;;;2.15;64.83;101629.59;4994122;28;45561;-55
2021/12/22 10:58:28;;;;;;;;;60.25;48.00;;;;;2.21;64.72;101630.91;5013993;28;45439;-50
2021/12/22 11:01:13;;;;;;;;;61.50;37.75;;;;;2.22;64.32;101624.50;5013130;28;46562;-52
2021/12/22 11:03:48;;;;;;;;;60.25;43.75;;;;;2.21;64.22;101628.19;5013521;28;45442;-53
2021/12/22 11:06:27;;;;;;;;;46.50;43.00;;;;;2.20;64.08;101631.91;5013340;28;45492;-48
2021/12/22 11:08:58;;;;;;;;;62.25;48.00;;;;;2.19;64.09;101622.03;5012256;28;45779;-54
2021/12/22 11:11:26;;;;;;;;;42.25;34.75;;;;;2.23;63.98;101625.38;5013247;28;45469;-50
2021/12/22 11:14:05;;;;;;;;;52.75;44.00;;;;;1.86;64.23;101568.00;4995323;28;45479;-53
2021/12/22 11:16:31;;;;;;;;;51.75;41.75;;;;;2.20;64.63;101623.78;4993298;28;45372;-53
2021/12/22 11:19:09;;;;;;;;;50.75;44.00;;;;;1.99;64.20;101594.88;4959603;28;45651;-53
2021/12/22 11:21:36;;;;;;;;;50.50;40.75;;;;;2.22;64.10;101618.22;4975174;28;50124;-56
2021/12/22 11:24:02;;;;;;;;;59.25;43.50;;;;;2.27;64.58;101616.84;4983801;28;45444;-54
2021/12/22 11:26:27;;;;;;;;;54.25;41.25;;;;;2.30;64.11;101610.28;4993057;28;45751;-52
2021/12/22 11:28:53;;;;;;;;;55.50;43.25;;;;;2.31;64.03;101598.44;4959553;28;45588;-56
2021/12/22 11:31:18;;;;;;;;;60.75;47.00;;;;;2.38;63.68;101596.03;4975489;28;45438;-50
2021/12/22 11:33:45;;;;;;;;;50.50;40.50;;;;;2.40;63.85;101594.06;4975625;28;45407;-52